sensor_id;sensor_type;location;lat;lon;timestamp;pressure;altitude;pressure_sealevel;temperature;humidity
43878;BME280;29815;48.184;11.268;2023-02-10T00:01:08;97244.81;;;-4.75;100.00
43878;BME280;29815;48.184;11.268;2023-02-10T00:03:39;97245.38;;;-4.72;100.00
43878;BME280;29815;48.184;11.268;2023-02-10T00:06:10;97256.47;;;-4.68;100.00
43878;BME280;29815;48.184;11.268;2023-02-10T00:08:41;97262.13;;;-4.63;100.00
43878;BME280;29815;48.184;11.268;2023-02-10T00:11:13;97258.81;;;-4.65;100.00
43878;BME280;29815;48.184;11.268;2023-02-10T00:13:44;97262.41;;;-4.66;100.00
43878;BME280;29815;48.184;11.268;2023-02-10T00:16:15;97274.44;;;-4.64;100.00
43878;BME280;29815;48.184;11.268;2023-02-10T00:18:44;97268.34;;;-4.64;100.00
43878;BME280;29815;48.184;11.268;2023-02-10T00:21:16;97267.25;;;-4.62;100.00
43878;BME280;29815;48.184;11.268;2023-02-10T00:23:45;97275.81;;;-4.60;100.00
43878;BME280;29815;48.184;11.268;2023-02-10T00:26:16;97276.00;;;-4.52;100.00
43878;BME280;29815;48.184;11.268;2023-02-10T00:28:46;97268.56;;;-4.47;100.00
43878;BME280;29815;48.184;11.268;2023-02-10T00:31:16;97274.81;;;-4.38;100.00
43878;BME280;29815;48.184;11.268;2023-02-10T00:33:47;97276.16;;;-4.34;100.00
43878;BME280;29815;48.184;11.268;2023-02-10T00:36:17;97280.47;;;-4.33;100.00
43878;BME280;29815;48.184;11.268;2023-02-10T00:38:47;97282.28;;;-4.24;100.00
43878;BME280;29815;48.184;11.268;2023-02-10T00:41:20;97287.25;;;-4.30;100.00
43878;BME280;29815;48.184;11.268;2023-02-10T00:43:51;97287.53;;;-4.24;100.00
43878;BME280;29815;48.184;11.268;2023-02-10T00:46:22;97291.97;;;-4.24;100.00
43878;BME280;29815;48.184;11.268;2023-02-10T00:48:51;97298.84;;;-4.33;100.00
43878;BME280;29815;48.184;11.268;2023-02-10T00:51:21;97298.84;;;-4.43;100.00
43878;BME280;29815;48.184;11.268;2023-02-10T00:53:50;97311.00;;;-4.51;100.00
43878;BME280;29815;48.184;11.268;2023-02-10T00:56:21;97304.78;;;-4.50;100.00
43878;BME280;29815;48.184;11.268;2023-02-10T00:58:51;97314.84;;;-4.55;100.00
43878;BME280;29815;48.184;11.268;2023-02-10T01:01:21;97311.78;;;-4.60;100.00
43878;BME280;29815;48.184;11.268;2023-02-10T01:03:50;97306.25;;;-4.67;100.00
43878;BME280;29815;48.184;11.268;2023-02-10T01:06:19;97311.06;;;-4.72;100.00
43878;BME280;29815;48.184;11.268;2023-02-10T01:08:49;97305.50;;;-4.79;100.00
43878;BME280;29815;48.184;11.268;2023-02-10T01:11:18;97304.91;;;-4.82;100.00
43878;BME280;29815;48.184;11.268;2023-02-10T01:13:49;97311.56;;;-4.78;100.00
43878;BME280;29815;48.184;11.268;2023-02-10T01:16:21;97310.94;;;-4.70;100.00
43878;BME280;29815;48.184;11.268;2023-02-10T01:18:50;97310.53;;;-4.66;100.00
43878;BME280;29815;48.184;11.268;2023-02-10T01:21:21;97310.81;;;-4.59;100.00
43878;BME280;29815;48.184;11.268;2023-02-10T01:23:51;97311.94;;;-4.52;100.00
43878;BME280;29815;48.184;11.268;2023-02-10T01:26:20;97315.00;;;-4.47;100.00
43878;BME280;29815;48.184;11.268;2023-02-10T01:28:51;97304.13;;;-4.43;100.00
43878;BME280;29815;48.184;11.268;2023-02-10T01:31:21;97314.75;;;-4.44;100.00
43878;BME280;29815;48.184;11.268;2023-02-10T01:33:53;97315.44;;;-4.42;100.00
43878;BME280;29815;48.184;11.268;2023-02-10T01:36:25;97311.56;;;-4.48;100.00
43878;BME280;29815;48.184;11.268;2023-02-10T01:38:54;97312.09;;;-4.54;100.00
43878;BME280;29815;48.184;11.268;2023-02-10T01:41:24;97317.91;;;-4.50;100.00
43878;BME280;29815;48.184;11.268;2023-02-10T01:44:00;97314.84;;;-4.55;100.00
43878;BME280;29815;48.184;11.268;2023-02-10T01:46:33;97318.69;;;-4.59;100.00
43878;BME280;29815;48.184;11.268;2023-02-10T01:49:06;97321.44;;;-4.61;100.00
43878;BME280;29815;48.184;11.268;2023-02-10T01:51:42;97324.53;;;-4.56;100.00
43878;BME280;29815;48.184;11.268;2023-02-10T01:54:20;97330.16;;;-4.60;100.00
43878;BME280;29815;48.184;11.268;2023-02-10T01:56:53;97325.59;;;-4.68;100.00
43878;BME280;29815;48.184;11.268;2023-02-10T01:59:27;97339.13;;;-4.72;100.00
43878;BME280;29815;48.184;11.268;2023-02-10T02:02:00;97338.66;;;-4.78;100.00
43878;BME280;29815;48.184;11.268;2023-02-10T02:04:46;97327.97;;;-4.86;100.00
43878;BME280;29815;48.184;11.268;2023-02-10T02:07:20;97332.91;;;-4.92;100.00
43878;BME280;29815;48.184;11.268;2023-02-10T02:09:52;97335.81;;;-4.95;100.00
43878;BME280;29815;48.184;11.268;2023-02-10T02:12:29;97333.47;;;-4.98;100.00
43878;BME280;29815;48.184;11.268;2023-02-10T02:15:11;97337.03;;;-4.99;100.00
43878;BME280;29815;48.184;11.268;2023-02-10T02:18:12;97333.41;;;-5.08;100.00
43878;BME280;29815;48.184;11.268;2023-02-10T02:24:58;97347.16;;;-5.16;100.00
43878;BME280;29815;48.184;11.268;2023-02-10T02:27:57;97347.81;;;-5.23;100.00
43878;BME280;29815;48.184;11.268;2023-02-10T02:31:11;97347.50;;;-5.30;100.00
43878;BME280;29815;48.184;11.268;2023-02-10T02:34:17;97352.41;;;-5.36;100.00
43878;BME280;29815;48.184;11.268;2023-02-10T02:36:56;97346.13;;;-5.45;100.00
43878;BME280;29815;48.184;11.268;2023-02-10T02:39:28;97352.78;;;-5.41;100.00
43878;BME280;29815;48.184;11.268;2023-02-10T02:42:18;97349.28;;;-5.30;100.00
43878;BME280;29815;48.184;11.268;2023-02-10T02:44:54;97353.19;;;-5.25;100.00
43878;BME280;29815;48.184;11.268;2023-02-10T02:47:46;97357.06;;;-5.19;100.00
43878;BME280;29815;48.184;11.268;2023-02-10T02:50:29;97360.84;;;-5.12;100.00
43878;BME280;29815;48.184;11.268;2023-02-10T02:53:16;97351.25;;;-5.02;100.00
43878;BME280;29815;48.184;11.268;2023-02-10T02:56:01;97344.31;;;-4.82;100.00
43878;BME280;29815;48.184;11.268;2023-02-10T02:58:50;97342.13;;;-4.77;100.00
43878;BME280;29815;48.184;11.268;2023-02-10T03:01:28;97346.69;;;-4.79;100.00
43878;BME280;29815;48.184;11.268;2023-02-10T03:04:01;97340.34;;;-4.77;100.00
43878;BME280;29815;48.184;11.268;2023-02-10T03:06:35;97350.59;;;-4.73;100.00
43878;BME280;29815;48.184;11.268;2023-02-10T03:09:04;97340.53;;;-4.59;100.00
43878;BME280;29815;48.184;11.268;2023-02-10T03:11:34;97341.56;;;-4.50;100.00
43878;BME280;29815;48.184;11.268;2023-02-10T03:14:03;97350.72;;;-4.45;100.00
43878;BME280;29815;48.184;11.268;2023-02-10T03:16:33;97342.38;;;-4.50;100.00
43878;BME280;29815;48.184;11.268;2023-02-10T03:19:02;97339.88;;;-4.51;100.00
43878;BME280;29815;48.184;11.268;2023-02-10T03:21:32;97342.66;;;-4.53;100.00
43878;BME280;29815;48.184;11.268;2023-02-10T03:24:03;97350.41;;;-4.51;100.00
43878;BME280;29815;48.184;11.268;2023-02-10T03:26:33;97350.97;;;-4.48;100.00
43878;BME280;29815;48.184;11.268;2023-02-10T03:29:04;97346.38;;;-4.55;100.00
43878;BME280;29815;48.184;11.268;2023-02-10T03:31:34;97349.88;;;-4.45;100.00
43878;BME280;29815;48.184;11.268;2023-02-10T03:34:03;97352.13;;;-4.40;100.00
43878;BME280;29815;48.184;11.268;2023-02-10T03:36:33;97354.31;;;-4.46;100.00
43878;BME280;29815;48.184;11.268;2023-02-10T03:39:04;97356.66;;;-4.43;100.00
43878;BME280;29815;48.184;11.268;2023-02-10T03:41:33;97353.59;;;-4.48;100.00
43878;BME280;29815;48.184;11.268;2023-02-10T03:44:03;97351.81;;;-4.47;100.00
43878;BME280;29815;48.184;11.268;2023-02-10T03:46:33;97357.06;;;-4.47;100.00
43878;BME280;29815;48.184;11.268;2023-02-10T03:49:05;97355.09;;;-4.55;100.00
43878;BME280;29815;48.184;11.268;2023-02-10T03:51:34;97350.41;;;-4.51;100.00
43878;BME280;29815;48.184;11.268;2023-02-10T03:54:05;97350.78;;;-4.56;100.00
43878;BME280;29815;48.184;11.268;2023-02-10T03:56:35;97351.19;;;-4.60;100.00
43878;BME280;29815;48.184;11.268;2023-02-10T03:59:05;97353.69;;;-4.59;100.00
43878;BME280;29815;48.184;11.268;2023-02-10T04:01:34;97349.25;;;-4.58;100.00
43878;BME280;29815;48.184;11.268;2023-02-10T04:04:05;97348.81;;;-4.63;100.00
43878;BME280;29815;48.184;11.268;2023-02-10T04:06:34;97345.22;;;-4.62;100.00
43878;BME280;29815;48.184;11.268;2023-02-10T04:09:05;97352.13;;;-4.71;100.00
43878;BME280;29815;48.184;11.268;2023-02-10T04:11:34;97347.00;;;-4.72;100.00
43878;BME280;29815;48.184;11.268;2023-02-10T04:14:04;97356.66;;;-4.73;100.00
43878;BME280;29815;48.184;11.268;2023-02-10T04:16:33;97358.06;;;-4.69;100.00
43878;BME280;29815;48.184;11.268;2023-02-10T04:19:04;97365.97;;;-4.69;100.00
43878;BME280;29815;48.184;11.268;2023-02-10T04:21:34;97365.50;;;-4.74;100.00
43878;BME280;29815;48.184;11.268;2023-02-10T04:24:05;97364.94;;;-4.78;100.00
43878;BME280;29815;48.184;11.268;2023-02-10T04:26:35;97368.53;;;-4.79;100.00
43878;BME280;29815;48.184;11.268;2023-02-10T04:29:04;97371.84;;;-4.77;100.00
43878;BME280;29815;48.184;11.268;2023-02-10T04:31:33;97376.53;;;-4.80;100.00
43878;BME280;29815;48.184;11.268;2023-02-10T04:34:03;97379.03;;;-4.79;100.00
43878;BME280;29815;48.184;11.268;2023-02-10T04:36:32;97395.88;;;-4.81;100.00
43878;BME280;29815;48.184;11.268;2023-02-10T04:39:02;97387.69;;;-4.88;100.00
43878;BME280;29815;48.184;11.268;2023-02-10T04:41:33;97385.97;;;-4.98;100.00
43878;BME280;29815;48.184;11.268;2023-02-10T04:44:03;97389.34;;;-5.07;100.00
43878;BME280;29815;48.184;11.268;2023-02-10T04:46:33;97403.22;;;-5.17;100.00
43878;BME280;29815;48.184;11.268;2023-02-10T04:49:03;97394.59;;;-5.28;100.00
43878;BME280;29815;48.184;11.268;2023-02-10T04:51:32;97395.22;;;-5.36;100.00
43878;BME280;29815;48.184;11.268;2023-02-10T04:54:01;97394.50;;;-5.38;100.00
43878;BME280;29815;48.184;11.268;2023-02-10T04:56:33;97395.13;;;-5.46;100.00
43878;BME280;29815;48.184;11.268;2023-02-10T04:59:02;97399.13;;;-5.51;100.00
43878;BME280;29815;48.184;11.268;2023-02-10T05:01:32;97403.06;;;-5.57;100.00
43878;BME280;29815;48.184;11.268;2023-02-10T05:04:02;97402.34;;;-5.59;100.00
43878;BME280;29815;48.184;11.268;2023-02-10T05:06:32;97405.81;;;-5.58;100.00
43878;BME280;29815;48.184;11.268;2023-02-10T05:09:01;97406.19;;;-5.63;100.00
43878;BME280;29815;48.184;11.268;2023-02-10T05:11:32;97411.06;;;-5.69;100.00
43878;BME280;29815;48.184;11.268;2023-02-10T05:14:01;97401.66;;;-5.72;100.00
43878;BME280;29815;48.184;11.268;2023-02-10T05:16:31;97405.75;;;-5.79;100.00
43878;BME280;29815;48.184;11.268;2023-02-10T05:19:00;97414.94;;;-5.85;100.00
43878;BME280;29815;48.184;11.268;2023-02-10T05:21:30;97420.81;;;-5.92;100.00
43878;BME280;29815;48.184;11.268;2023-02-10T05:23:59;97414.28;;;-5.98;100.00
43878;BME280;29815;48.184;11.268;2023-02-10T05:26:29;97417.41;;;-6.04;100.00
43878;BME280;29815;48.184;11.268;2023-02-10T05:29:00;97420.50;;;-6.10;100.00
43878;BME280;29815;48.184;11.268;2023-02-10T05:31:29;97418.13;;;-6.13;100.00
43878;BME280;29815;48.184;11.268;2023-02-10T05:33:59;97421.09;;;-6.18;100.00
43878;BME280;29815;48.184;11.268;2023-02-10T05:36:28;97424.66;;;-6.19;100.00
43878;BME280;29815;48.184;11.268;2023-02-10T05:38:58;97418.84;;;-6.22;100.00
43878;BME280;29815;48.184;11.268;2023-02-10T05:41:45;97425.75;;;-6.21;100.00
43878;BME280;29815;48.184;11.268;2023-02-10T05:44:16;97428.59;;;-6.24;100.00
43878;BME280;29815;48.184;11.268;2023-02-10T05:46:46;97438.38;;;-6.26;100.00
43878;BME280;29815;48.184;11.268;2023-02-10T05:49:16;97435.03;;;-6.28;100.00
43878;BME280;29815;48.184;11.268;2023-02-10T05:51:47;97443.59;;;-6.15;100.00
43878;BME280;29815;48.184;11.268;2023-02-10T05:54:19;97448.50;;;-6.10;100.00
43878;BME280;29815;48.184;11.268;2023-02-10T05:56:49;97451.72;;;-6.07;100.00
43878;BME280;29815;48.184;11.268;2023-02-10T05:59:21;97452.19;;;-6.02;100.00
43878;BME280;29815;48.184;11.268;2023-02-10T06:01:51;97450.00;;;-5.97;100.00
43878;BME280;29815;48.184;11.268;2023-02-10T06:04:20;97450.25;;;-5.89;100.00
43878;BME280;29815;48.184;11.268;2023-02-10T06:06:50;97452.47;;;-5.84;100.00
43878;BME280;29815;48.184;11.268;2023-02-10T06:09:20;97443.66;;;-5.83;100.00
43878;BME280;29815;48.184;11.268;2023-02-10T06:11:50;97452.19;;;-5.70;100.00
43878;BME280;29815;48.184;11.268;2023-02-10T06:14:22;97452.09;;;-5.68;100.00
43878;BME280;29815;48.184;11.268;2023-02-10T06:16:51;97454.22;;;-5.62;100.00
43878;BME280;29815;48.184;11.268;2023-02-10T06:19:21;97440.97;;;-5.61;100.00
43878;BME280;29815;48.184;11.268;2023-02-10T06:21:51;97442.53;;;-5.58;100.00
43878;BME280;29815;48.184;11.268;2023-02-10T06:24:21;97448.84;;;-5.61;100.00
43878;BME280;29815;48.184;11.268;2023-02-10T06:26:50;97452.56;;;-5.63;100.00
43878;BME280;29815;48.184;11.268;2023-02-10T06:29:23;97459.47;;;-5.62;100.00
43878;BME280;29815;48.184;11.268;2023-02-10T06:31:53;97458.63;;;-5.63;100.00
43878;BME280;29815;48.184;11.268;2023-02-10T06:34:28;97463.75;;;-5.61;100.00
43878;BME280;29815;48.184;11.268;2023-02-10T06:36:58;97474.72;;;-5.56;100.00
43878;BME280;29815;48.184;11.268;2023-02-10T06:39:28;97482.34;;;-5.53;100.00
43878;BME280;29815;48.184;11.268;2023-02-10T06:41:59;97485.56;;;-5.50;100.00
43878;BME280;29815;48.184;11.268;2023-02-10T06:44:30;97484.84;;;-5.52;100.00
43878;BME280;29815;48.184;11.268;2023-02-10T06:46:59;97483.06;;;-5.51;100.00
43878;BME280;29815;48.184;11.268;2023-02-10T06:49:29;97483.78;;;-5.49;100.00
43878;BME280;29815;48.184;11.268;2023-02-10T06:51:58;97487.66;;;-5.43;100.00
43878;BME280;29815;48.184;11.268;2023-02-10T06:54:28;97489.94;;;-5.39;100.00
43878;BME280;29815;48.184;11.268;2023-02-10T06:56:57;97482.03;;;-5.28;100.00
43878;BME280;29815;48.184;11.268;2023-02-10T06:59:27;97484.53;;;-5.26;100.00
43878;BME280;29815;48.184;11.268;2023-02-10T07:01:58;97490.56;;;-5.15;100.00
43878;BME280;29815;48.184;11.268;2023-02-10T07:04:31;97486.16;;;-5.14;100.00
43878;BME280;29815;48.184;11.268;2023-02-10T07:07:01;97494.25;;;-5.06;100.00
43878;BME280;29815;48.184;11.268;2023-02-10T07:09:30;97494.38;;;-5.07;100.00
43878;BME280;29815;48.184;11.268;2023-02-10T07:12:00;97500.44;;;-5.07;100.00
43878;BME280;29815;48.184;11.268;2023-02-10T07:14:29;97493.53;;;-5.08;100.00
43878;BME280;29815;48.184;11.268;2023-02-10T07:17:00;97498.66;;;-5.06;100.00
43878;BME280;29815;48.184;11.268;2023-02-10T07:19:31;97507.25;;;-5.04;100.00
43878;BME280;29815;48.184;11.268;2023-02-10T07:22:00;97510.09;;;-4.96;100.00
43878;BME280;29815;48.184;11.268;2023-02-10T07:24:33;97506.50;;;-4.95;100.00
43878;BME280;29815;48.184;11.268;2023-02-10T07:27:03;97508.28;;;-4.96;100.00
43878;BME280;29815;48.184;11.268;2023-02-10T07:29:33;97512.47;;;-4.93;100.00
43878;BME280;29815;48.184;11.268;2023-02-10T07:32:04;97515.41;;;-4.87;100.00
43878;BME280;29815;48.184;11.268;2023-02-10T07:34:34;97517.84;;;-4.74;100.00
43878;BME280;29815;48.184;11.268;2023-02-10T07:37:04;97521.19;;;-4.72;100.00
43878;BME280;29815;48.184;11.268;2023-02-10T07:39:33;97519.53;;;-4.73;100.00
43878;BME280;29815;48.184;11.268;2023-02-10T07:42:03;97515.94;;;-4.72;100.00
43878;BME280;29815;48.184;11.268;2023-02-10T07:44:52;97522.06;;;-4.62;100.00
43878;BME280;29815;48.184;11.268;2023-02-10T07:47:22;97521.94;;;-4.60;100.00
43878;BME280;29815;48.184;11.268;2023-02-10T07:49:52;97529.59;;;-4.57;100.00
43878;BME280;29815;48.184;11.268;2023-02-10T07:52:22;97528.56;;;-4.45;100.00
43878;BME280;29815;48.184;11.268;2023-02-10T07:54:52;97530.28;;;-4.34;100.00
43878;BME280;29815;48.184;11.268;2023-02-10T07:57:23;97544.91;;;-4.21;100.00
43878;BME280;29815;48.184;11.268;2023-02-10T07:59:53;97548.69;;;-4.14;100.00
43878;BME280;29815;48.184;11.268;2023-02-10T08:02:23;97550.41;;;-4.03;100.00
43878;BME280;29815;48.184;11.268;2023-02-10T08:04:53;97548.41;;;-3.90;100.00
43878;BME280;29815;48.184;11.268;2023-02-10T08:07:23;97550.78;;;-3.87;100.00
43878;BME280;29815;48.184;11.268;2023-02-10T08:09:53;97543.75;;;-3.77;100.00
43878;BME280;29815;48.184;11.268;2023-02-10T08:12:22;97546.81;;;-3.71;100.00
43878;BME280;29815;48.184;11.268;2023-02-10T08:14:52;97542.97;;;-3.67;100.00
43878;BME280;29815;48.184;11.268;2023-02-10T08:17:22;97541.47;;;-3.60;100.00
43878;BME280;29815;48.184;11.268;2023-02-10T08:19:52;97545.34;;;-3.55;100.00
43878;BME280;29815;48.184;11.268;2023-02-10T08:22:22;97538.44;;;-3.46;100.00
43878;BME280;29815;48.184;11.268;2023-02-10T08:24:52;97535.28;;;-3.40;100.00
43878;BME280;29815;48.184;11.268;2023-02-10T08:27:21;97540.84;;;-3.33;100.00
43878;BME280;29815;48.184;11.268;2023-02-10T08:29:51;97534.50;;;-3.21;100.00
43878;BME280;29815;48.184;11.268;2023-02-10T08:32:20;97538.28;;;-3.04;100.00
43878;BME280;29815;48.184;11.268;2023-02-10T08:34:52;97538.69;;;-2.90;100.00
43878;BME280;29815;48.184;11.268;2023-02-10T08:37:21;97538.84;;;-2.82;100.00
43878;BME280;29815;48.184;11.268;2023-02-10T08:39:51;97544.09;;;-2.72;100.00
43878;BME280;29815;48.184;11.268;2023-02-10T08:42:21;97548.97;;;-2.58;100.00
43878;BME280;29815;48.184;11.268;2023-02-10T08:44:50;97549.66;;;-2.36;100.00
43878;BME280;29815;48.184;11.268;2023-02-10T08:47:20;97546.31;;;-2.19;100.00
43878;BME280;29815;48.184;11.268;2023-02-10T08:49:52;97540.44;;;-2.13;100.00
43878;BME280;29815;48.184;11.268;2023-02-10T08:52:22;97531.97;;;-1.97;100.00
43878;BME280;29815;48.184;11.268;2023-02-10T08:54:53;97535.16;;;-1.94;100.00
43878;BME280;29815;48.184;11.268;2023-02-10T08:57:24;97539.25;;;-1.82;100.00
43878;BME280;29815;48.184;11.268;2023-02-10T08:59:54;97533.28;;;-1.74;100.00
43878;BME280;29815;48.184;11.268;2023-02-10T09:02:24;97534.22;;;-1.65;100.00
43878;BME280;29815;48.184;11.268;2023-02-10T09:04:54;97543.47;;;-1.61;100.00
43878;BME280;29815;48.184;11.268;2023-02-10T09:07:37;97536.94;;;-1.57;100.00
43878;BME280;29815;48.184;11.268;2023-02-10T09:10:09;97540.66;;;-1.50;100.00
43878;BME280;29815;48.184;11.268;2023-02-10T09:12:39;97548.44;;;-1.49;100.00
43878;BME280;29815;48.184;11.268;2023-02-10T09:15:09;97546.16;;;-1.34;100.00
43878;BME280;29815;48.184;11.268;2023-02-10T09:17:39;97549.44;;;-1.22;100.00
43878;BME280;29815;48.184;11.268;2023-02-10T09:20:11;97558.59;;;-1.17;100.00
43878;BME280;29815;48.184;11.268;2023-02-10T09:22:41;97557.59;;;-1.16;100.00
43878;BME280;29815;48.184;11.268;2023-02-10T09:25:11;97557.25;;;-1.03;100.00
43878;BME280;29815;48.184;11.268;2023-02-10T09:27:40;97557.78;;;-0.99;100.00
43878;BME280;29815;48.184;11.268;2023-02-10T09:30:11;97551.22;;;-0.95;100.00
43878;BME280;29815;48.184;11.268;2023-02-10T09:32:41;97561.19;;;-0.89;100.00
43878;BME280;29815;48.184;11.268;2023-02-10T09:35:12;97563.06;;;-0.82;100.00
43878;BME280;29815;48.184;11.268;2023-02-10T09:37:41;97570.84;;;-0.80;100.00
43878;BME280;29815;48.184;11.268;2023-02-10T09:40:16;97566.94;;;-0.76;100.00
43878;BME280;29815;48.184;11.268;2023-02-10T09:43:01;97566.13;;;-0.59;100.00
43878;BME280;29815;48.184;11.268;2023-02-10T09:45:37;97569.13;;;-0.54;100.00
43878;BME280;29815;48.184;11.268;2023-02-10T09:48:24;97574.66;;;-0.47;100.00
43878;BME280;29815;48.184;11.268;2023-02-10T09:51:06;97569.69;;;-0.32;100.00
43878;BME280;29815;48.184;11.268;2023-02-10T09:53:41;97570.72;;;-0.08;100.00
43878;BME280;29815;48.184;11.268;2023-02-10T09:56:17;97571.38;;;-0.06;100.00
43878;BME280;29815;48.184;11.268;2023-02-10T09:58:52;97572.09;;;0.05;100.00
43878;BME280;29815;48.184;11.268;2023-02-10T10:01:26;97573.59;;;0.25;100.00
43878;BME280;29815;48.184;11.268;2023-02-10T10:04:03;97566.34;;;0.35;100.00
43878;BME280;29815;48.184;11.268;2023-02-10T10:06:38;97565.13;;;0.55;100.00
43878;BME280;29815;48.184;11.268;2023-02-10T10:09:23;97556.28;;;0.73;100.00
43878;BME280;29815;48.184;11.268;2023-02-10T10:11:57;97561.13;;;0.77;100.00
43878;BME280;29815;48.184;11.268;2023-02-10T10:14:31;97549.22;;;0.89;100.00
43878;BME280;29815;48.184;11.268;2023-02-10T10:17:35;97557.88;;;0.99;100.00
43878;BME280;29815;48.184;11.268;2023-02-10T10:20:27;97553.25;;;1.01;100.00
43878;BME280;29815;48.184;11.268;2023-02-10T10:23:15;97558.06;;;1.06;100.00
43878;BME280;29815;48.184;11.268;2023-02-10T10:26:02;97551.63;;;1.17;100.00
43878;BME280;29815;48.184;11.268;2023-02-10T10:28:59;97546.16;;;1.18;100.00
43878;BME280;29815;48.184;11.268;2023-02-10T10:31:34;97538.72;;;1.38;100.00
43878;BME280;29815;48.184;11.268;2023-02-10T10:34:12;97537.56;;;1.41;100.00
43878;BME280;29815;48.184;11.268;2023-02-10T10:36:47;97531.75;;;1.37;100.00
43878;BME280;29815;48.184;11.268;2023-02-10T10:39:26;97534.25;;;1.47;100.00
43878;BME280;29815;48.184;11.268;2023-02-10T10:42:02;97531.13;;;1.51;100.00
43878;BME280;29815;48.184;11.268;2023-02-10T10:44:46;97531.63;;;1.55;100.00
43878;BME280;29815;48.184;11.268;2023-02-10T10:47:23;97529.97;;;1.62;100.00
43878;BME280;29815;48.184;11.268;2023-02-10T10:50:04;97517.03;;;1.59;100.00
43878;BME280;29815;48.184;11.268;2023-02-10T10:52:35;97520.34;;;1.61;100.00
43878;BME280;29815;48.184;11.268;2023-02-10T10:55:14;97521.00;;;1.71;100.00
43878;BME280;29815;48.184;11.268;2023-02-10T10:57:47;97511.22;;;1.80;100.00
43878;BME280;29815;48.184;11.268;2023-02-10T11:00:22;97508.75;;;1.86;100.00
43878;BME280;29815;48.184;11.268;2023-02-10T11:02:57;97506.41;;;1.83;100.00
43878;BME280;29815;48.184;11.268;2023-02-10T11:05:31;97503.44;;;1.78;100.00
43878;BME280;29815;48.184;11.268;2023-02-10T11:08:05;97504.88;;;1.97;100.00
43878;BME280;29815;48.184;11.268;2023-02-10T11:10:48;97500.75;;;2.02;100.00
43878;BME280;29815;48.184;11.268;2023-02-10T11:13:23;97488.97;;;1.97;100.00
43878;BME280;29815;48.184;11.268;2023-02-10T11:16:01;97488.28;;;2.03;100.00
43878;BME280;29815;48.184;11.268;2023-02-10T11:18:33;97486.63;;;2.18;100.00
43878;BME280;29815;48.184;11.268;2023-02-10T11:21:06;97483.25;;;2.24;100.00
43878;BME280;29815;48.184;11.268;2023-02-10T11:23:47;97480.59;;;2.24;100.00
43878;BME280;29815;48.184;11.268;2023-02-10T11:26:22;97475.78;;;2.28;100.00
43878;BME280;29815;48.184;11.268;2023-02-10T11:28:54;97484.91;;;2.33;100.00
43878;BME280;29815;48.184;11.268;2023-02-10T11:31:31;97477.41;;;2.37;100.00
43878;BME280;29815;48.184;11.268;2023-02-10T11:34:17;97473.44;;;2.41;100.00
43878;BME280;29815;48.184;11.268;2023-02-10T11:36:49;97475.91;;;2.43;100.00
43878;BME280;29815;48.184;11.268;2023-02-10T11:39:25;97470.09;;;2.39;100.00
43878;BME280;29815;48.184;11.268;2023-02-10T11:42:06;97468.28;;;2.40;100.00
43878;BME280;29815;48.184;11.268;2023-02-10T11:44:36;97462.47;;;2.36;100.00
43878;BME280;29815;48.184;11.268;2023-02-10T11:47:15;97463.38;;;2.59;100.00
43878;BME280;29815;48.184;11.268;2023-02-10T11:49:48;97461.16;;;2.71;100.00
43878;BME280;29815;48.184;11.268;2023-02-10T11:52:21;97455.38;;;2.67;100.00
43878;BME280;29815;48.184;11.268;2023-02-10T11:54:52;97455.06;;;2.62;100.00
43878;BME280;29815;48.184;11.268;2023-02-10T11:57:33;97454.53;;;2.67;100.00
43878;BME280;29815;48.184;11.268;2023-02-10T12:00:32;97440.50;;;2.81;100.00
43878;BME280;29815;48.184;11.268;2023-02-10T12:03:33;97436.56;;;3.00;100.00
43878;BME280;29815;48.184;11.268;2023-02-10T12:06:13;97437.81;;;3.12;100.00
43878;BME280;29815;48.184;11.268;2023-02-10T12:09:09;97424.94;;;3.24;100.00
43878;BME280;29815;48.184;11.268;2023-02-10T12:11:54;97429.97;;;3.19;100.00
43878;BME280;29815;48.184;11.268;2023-02-10T12:14:43;97431.63;;;3.20;100.00
43878;BME280;29815;48.184;11.268;2023-02-10T12:17:28;97425.59;;;3.26;100.00
43878;BME280;29815;48.184;11.268;2023-02-10T12:20:20;97420.31;;;3.40;100.00
43878;BME280;29815;48.184;11.268;2023-02-10T12:26:24;97416.56;;;3.50;100.00
43878;BME280;29815;48.184;11.268;2023-02-10T12:29:11;97424.03;;;3.54;100.00
43878;BME280;29815;48.184;11.268;2023-02-10T12:31:59;97420.25;;;3.63;100.00
43878;BME280;29815;48.184;11.268;2023-02-10T12:34:53;97419.59;;;3.61;100.00
43878;BME280;29815;48.184;11.268;2023-02-10T12:37:40;97420.31;;;3.78;100.00
43878;BME280;29815;48.184;11.268;2023-02-10T12:40:36;97418.53;;;3.70;100.00
43878;BME280;29815;48.184;11.268;2023-02-10T12:43:27;97424.34;;;3.74;100.00
43878;BME280;29815;48.184;11.268;2023-02-10T12:46:15;97412.78;;;3.82;100.00
43878;BME280;29815;48.184;11.268;2023-02-10T12:49:05;97414.91;;;4.01;100.00
43878;BME280;29815;48.184;11.268;2023-02-10T12:51:52;97410.22;;;4.03;100.00
43878;BME280;29815;48.184;11.268;2023-02-10T12:54:39;97418.88;;;4.05;100.00
43878;BME280;29815;48.184;11.268;2023-02-10T12:57:19;97412.53;;;4.06;100.00
43878;BME280;29815;48.184;11.268;2023-02-10T12:59:56;97411.22;;;4.02;100.00
43878;BME280;29815;48.184;11.268;2023-02-10T13:02:36;97411.16;;;4.10;100.00
43878;BME280;29815;48.184;11.268;2023-02-10T13:05:13;97406.63;;;4.11;100.00
43878;BME280;29815;48.184;11.268;2023-02-10T13:07:50;97410.41;;;4.16;100.00
43878;BME280;29815;48.184;11.268;2023-02-10T13:10:30;97405.25;;;4.29;100.00
43878;BME280;29815;48.184;11.268;2023-02-10T13:13:05;97398.38;;;4.35;97.89
43878;BME280;29815;48.184;11.268;2023-02-10T13:15:40;97396.22;;;4.45;97.17
43878;BME280;29815;48.184;11.268;2023-02-10T13:18:19;97399.81;;;4.52;87.17
43878;BME280;29815;48.184;11.268;2023-02-10T13:20:58;97398.22;;;4.58;94.00
43878;BME280;29815;48.184;11.268;2023-02-10T13:23:39;97394.75;;;4.57;98.31
43878;BME280;29815;48.184;11.268;2023-02-10T13:26:37;97393.22;;;4.69;93.76